sensor_id;sensor_type;location;lat;lon;timestamp;P1;durP1;ratioP1;P2;durP2;ratioP2
69207;SDS011;56321;47.662;8.878;2023-02-28T00:00:06;9.80;;;4.00;;
69207;SDS011;56321;47.662;8.878;2023-02-28T00:02:39;9.55;;;4.30;;
69207;SDS011;56321;47.662;8.878;2023-02-28T00:05:05;9.43;;;4.03;;
69207;SDS011;56321;47.662;8.878;2023-02-28T00:07:31;9.38;;;4.00;;
69207;SDS011;56321;47.662;8.878;2023-02-28T00:09:57;11.75;;;4.43;;
69207;SDS011;56321;47.662;8.878;2023-02-28T00:12:23;9.97;;;4.37;;
69207;SDS011;56321;47.662;8.878;2023-02-28T00:14:49;9.27;;;4.13;;
69207;SDS011;56321;47.662;8.878;2023-02-28T00:17:14;11.00;;;4.47;;
69207;SDS011;56321;47.662;8.878;2023-02-28T00:19:42;9.27;;;4.00;;
69207;SDS011;56321;47.662;8.878;2023-02-28T00:22:08;10.23;;;4.63;;
69207;SDS011;56321;47.662;8.878;2023-02-28T00:24:33;10.60;;;4.27;;
69207;SDS011;56321;47.662;8.878;2023-02-28T00:26:59;9.53;;;4.30;;
69207;SDS011;56321;47.662;8.878;2023-02-28T00:29:24;9.73;;;4.10;;
69207;SDS011;56321;47.662;8.878;2023-02-28T00:31:49;10.13;;;4.43;;
69207;SDS011;56321;47.662;8.878;2023-02-28T00:34:15;9.15;;;4.00;;
69207;SDS011;56321;47.662;8.878;2023-02-28T00:36:40;9.77;;;4.50;;
69207;SDS011;56321;47.662;8.878;2023-02-28T00:39:10;9.27;;;4.15;;
69207;SDS011;56321;47.662;8.878;2023-02-28T00:41:35;9.97;;;4.17;;
69207;SDS011;56321;47.662;8.878;2023-02-28T00:44:01;10.03;;;4.50;;
69207;SDS011;56321;47.662;8.878;2023-02-28T00:46:26;11.53;;;4.77;;
69207;SDS011;56321;47.662;8.878;2023-02-28T00:48:51;9.17;;;4.30;;
69207;SDS011;56321;47.662;8.878;2023-02-28T00:51:17;9.93;;;4.40;;
69207;SDS011;56321;47.662;8.878;2023-02-28T00:53:42;8.90;;;3.70;;
69207;SDS011;56321;47.662;8.878;2023-02-28T00:56:07;10.17;;;4.67;;
69207;SDS011;56321;47.662;8.878;2023-02-28T00:58:33;10.27;;;4.30;;
69207;SDS011;56321;47.662;8.878;2023-02-28T01:00:58;9.43;;;4.23;;
69207;SDS011;56321;47.662;8.878;2023-02-28T01:03:23;10.33;;;4.37;;
69207;SDS011;56321;47.662;8.878;2023-02-28T01:05:49;13.53;;;4.80;;
69207;SDS011;56321;47.662;8.878;2023-02-28T01:08:15;9.13;;;4.53;;
69207;SDS011;56321;47.662;8.878;2023-02-28T01:10:40;9.40;;;4.30;;
69207;SDS011;56321;47.662;8.878;2023-02-28T01:13:06;9.57;;;4.40;;
69207;SDS011;56321;47.662;8.878;2023-02-28T01:15:31;9.07;;;3.70;;
69207;SDS011;56321;47.662;8.878;2023-02-28T01:17:57;10.67;;;4.50;;
69207;SDS011;56321;47.662;8.878;2023-02-28T01:20:23;9.60;;;4.20;;
69207;SDS011;56321;47.662;8.878;2023-02-28T01:22:49;11.38;;;4.80;;
69207;SDS011;56321;47.662;8.878;2023-02-28T01:25:14;10.93;;;4.57;;
69207;SDS011;56321;47.662;8.878;2023-02-28T01:27:39;9.43;;;4.27;;
69207;SDS011;56321;47.662;8.878;2023-02-28T01:30:05;9.63;;;4.20;;
69207;SDS011;56321;47.662;8.878;2023-02-28T01:32:32;9.57;;;3.90;;
69207;SDS011;56321;47.662;8.878;2023-02-28T01:34:57;10.30;;;4.20;;
69207;SDS011;56321;47.662;8.878;2023-02-28T01:37:23;9.10;;;4.00;;
69207;SDS011;56321;47.662;8.878;2023-02-28T01:39:48;9.60;;;4.27;;
69207;SDS011;56321;47.662;8.878;2023-02-28T01:42:13;8.60;;;4.03;;
69207;SDS011;56321;47.662;8.878;2023-02-28T01:47:29;9.75;;;4.45;;
69207;SDS011;56321;47.662;8.878;2023-02-28T01:49:57;8.98;;;4.10;;
69207;SDS011;56321;47.662;8.878;2023-02-28T01:52:23;9.07;;;3.92;;
69207;SDS011;56321;47.662;8.878;2023-02-28T01:54:51;9.32;;;4.00;;
69207;SDS011;56321;47.662;8.878;2023-02-28T01:57:19;10.27;;;4.13;;
69207;SDS011;56321;47.662;8.878;2023-02-28T01:59:53;9.57;;;4.35;;
69207;SDS011;56321;47.662;8.878;2023-02-28T02:02:23;9.65;;;3.95;;
69207;SDS011;56321;47.662;8.878;2023-02-28T02:04:50;8.98;;;4.28;;
69207;SDS011;56321;47.662;8.878;2023-02-28T02:07:20;8.80;;;4.07;;
69207;SDS011;56321;47.662;8.878;2023-02-28T02:09:46;9.00;;;3.80;;
69207;SDS011;56321;47.662;8.878;2023-02-28T02:12:26;9.37;;;4.30;;
69207;SDS011;56321;47.662;8.878;2023-02-28T02:15:05;9.75;;;4.00;;
69207;SDS011;56321;47.662;8.878;2023-02-28T02:17:40;8.82;;;3.75;;
69207;SDS011;56321;47.662;8.878;2023-02-28T02:23:27;9.32;;;3.83;;
69207;SDS011;56321;47.662;8.878;2023-02-28T02:40:20;10.20;;;4.00;;
69207;SDS011;56321;47.662;8.878;2023-02-28T02:43:20;8.60;;;3.83;;
69207;SDS011;56321;47.662;8.878;2023-02-28T02:45:57;9.13;;;3.92;;
69207;SDS011;56321;47.662;8.878;2023-02-28T02:48:27;8.55;;;3.80;;
69207;SDS011;56321;47.662;8.878;2023-02-28T02:50:58;8.35;;;3.67;;
69207;SDS011;56321;47.662;8.878;2023-02-28T02:53:33;9.50;;;3.90;;
69207;SDS011;56321;47.662;8.878;2023-02-28T02:56:03;8.27;;;3.47;;
69207;SDS011;56321;47.662;8.878;2023-02-28T02:58:31;8.27;;;3.47;;
69207;SDS011;56321;47.662;8.878;2023-02-28T03:01:05;8.48;;;3.53;;
69207;SDS011;56321;47.662;8.878;2023-02-28T03:03:31;8.77;;;3.38;;
69207;SDS011;56321;47.662;8.878;2023-02-28T03:05:59;10.70;;;4.00;;
69207;SDS011;56321;47.662;8.878;2023-02-28T03:08:25;8.43;;;3.58;;
69207;SDS011;56321;47.662;8.878;2023-02-28T03:10:55;8.35;;;3.40;;
69207;SDS011;56321;47.662;8.878;2023-02-28T03:19:20;8.37;;;3.50;;
69207;SDS011;56321;47.662;8.878;2023-02-28T03:24:28;8.38;;;3.80;;
69207;SDS011;56321;47.662;8.878;2023-02-28T03:27:15;7.97;;;3.38;;
69207;SDS011;56321;47.662;8.878;2023-02-28T03:29:47;8.45;;;3.47;;
69207;SDS011;56321;47.662;8.878;2023-02-28T03:32:37;8.60;;;3.60;;
69207;SDS011;56321;47.662;8.878;2023-02-28T03:35:12;8.45;;;3.67;;
69207;SDS011;56321;47.662;8.878;2023-02-28T03:37:46;8.82;;;3.50;;
69207;SDS011;56321;47.662;8.878;2023-02-28T03:40:15;9.32;;;3.50;;
69207;SDS011;56321;47.662;8.878;2023-02-28T03:42:45;8.25;;;3.60;;
69207;SDS011;56321;47.662;8.878;2023-02-28T03:45:25;7.83;;;3.50;;
69207;SDS011;56321;47.662;8.878;2023-02-28T03:47:53;7.35;;;2.95;;
69207;SDS011;56321;47.662;8.878;2023-02-28T03:50:24;7.95;;;3.13;;
69207;SDS011;56321;47.662;8.878;2023-02-28T03:55:54;8.05;;;3.40;;
69207;SDS011;56321;47.662;8.878;2023-02-28T03:59:00;7.57;;;3.10;;
69207;SDS011;56321;47.662;8.878;2023-02-28T04:01:35;8.40;;;3.35;;
69207;SDS011;56321;47.662;8.878;2023-02-28T04:04:06;7.55;;;3.22;;
69207;SDS011;56321;47.662;8.878;2023-02-28T04:06:33;8.70;;;3.78;;
69207;SDS011;56321;47.662;8.878;2023-02-28T04:08:59;9.07;;;3.50;;
69207;SDS011;56321;47.662;8.878;2023-02-28T04:11:35;8.00;;;3.53;;
69207;SDS011;56321;47.662;8.878;2023-02-28T04:14:10;8.23;;;3.30;;
69207;SDS011;56321;47.662;8.878;2023-02-28T04:16:37;9.57;;;3.60;;
69207;SDS011;56321;47.662;8.878;2023-02-28T04:19:05;8.60;;;3.15;;
69207;SDS011;56321;47.662;8.878;2023-02-28T04:21:32;8.57;;;3.40;;
69207;SDS011;56321;47.662;8.878;2023-02-28T04:24:02;8.40;;;3.50;;
69207;SDS011;56321;47.662;8.878;2023-02-28T04:29:01;8.13;;;3.50;;
69207;SDS011;56321;47.662;8.878;2023-02-28T04:31:28;9.57;;;3.28;;
69207;SDS011;56321;47.662;8.878;2023-02-28T04:33:54;8.37;;;3.40;;
69207;SDS011;56321;47.662;8.878;2023-02-28T04:36:19;8.23;;;3.40;;
69207;SDS011;56321;47.662;8.878;2023-02-28T04:38:45;8.63;;;3.37;;
69207;SDS011;56321;47.662;8.878;2023-02-28T04:41:14;7.97;;;3.15;;
69207;SDS011;56321;47.662;8.878;2023-02-28T04:43:40;8.00;;;3.40;;
69207;SDS011;56321;47.662;8.878;2023-02-28T04:46:05;7.63;;;3.20;;
69207;SDS011;56321;47.662;8.878;2023-02-28T04:53:31;9.73;;;3.85;;
69207;SDS011;56321;47.662;8.878;2023-02-28T04:55:57;9.80;;;3.97;;
69207;SDS011;56321;47.662;8.878;2023-02-28T04:58:23;8.20;;;3.55;;
69207;SDS011;56321;47.662;8.878;2023-02-28T05:00:49;8.70;;;3.70;;
69207;SDS011;56321;47.662;8.878;2023-02-28T05:03:18;8.13;;;3.13;;
69207;SDS011;56321;47.662;8.878;2023-02-28T05:05:45;8.27;;;3.42;;
69207;SDS011;56321;47.662;8.878;2023-02-28T05:08:11;10.10;;;3.42;;
69207;SDS011;56321;47.662;8.878;2023-02-28T05:10:36;9.13;;;3.60;;
69207;SDS011;56321;47.662;8.878;2023-02-28T05:13:02;8.23;;;3.43;;
69207;SDS011;56321;47.662;8.878;2023-02-28T05:15:27;8.63;;;3.33;;
69207;SDS011;56321;47.662;8.878;2023-02-28T05:17:53;8.85;;;3.53;;
69207;SDS011;56321;47.662;8.878;2023-02-28T05:20:18;8.30;;;3.27;;
69207;SDS011;56321;47.662;8.878;2023-02-28T05:22:43;9.33;;;3.50;;
69207;SDS011;56321;47.662;8.878;2023-02-28T05:25:13;8.20;;;3.53;;
69207;SDS011;56321;47.662;8.878;2023-02-28T05:27:41;10.38;;;3.80;;
69207;SDS011;56321;47.662;8.878;2023-02-28T05:30:07;8.30;;;3.60;;
69207;SDS011;56321;47.662;8.878;2023-02-28T05:32:35;9.18;;;3.90;;
69207;SDS011;56321;47.662;8.878;2023-02-28T05:35:03;8.82;;;3.53;;
69207;SDS011;56321;47.662;8.878;2023-02-28T05:37:29;9.27;;;3.95;;
69207;SDS011;56321;47.662;8.878;2023-02-28T05:39:55;8.40;;;3.80;;
69207;SDS011;56321;47.662;8.878;2023-02-28T05:42:20;10.10;;;4.23;;
69207;SDS011;56321;47.662;8.878;2023-02-28T05:44:45;9.13;;;4.10;;
69207;SDS011;56321;47.662;8.878;2023-02-28T05:47:11;9.38;;;4.13;;
69207;SDS011;56321;47.662;8.878;2023-02-28T05:49:40;9.38;;;4.10;;
69207;SDS011;56321;47.662;8.878;2023-02-28T05:52:06;10.43;;;4.10;;
69207;SDS011;56321;47.662;8.878;2023-02-28T05:54:31;9.27;;;4.17;;
69207;SDS011;56321;47.662;8.878;2023-02-28T05:56:56;8.53;;;3.87;;
69207;SDS011;56321;47.662;8.878;2023-02-28T05:59:21;9.47;;;4.40;;
69207;SDS011;56321;47.662;8.878;2023-02-28T06:01:47;10.70;;;4.07;;
69207;SDS011;56321;47.662;8.878;2023-02-28T06:04:16;9.67;;;4.33;;
69207;SDS011;56321;47.662;8.878;2023-02-28T06:06:47;9.15;;;4.28;;
69207;SDS011;56321;47.662;8.878;2023-02-28T06:09:14;10.43;;;4.90;;
69207;SDS011;56321;47.662;8.878;2023-02-28T06:11:40;10.02;;;4.35;;
69207;SDS011;56321;47.662;8.878;2023-02-28T06:14:06;10.20;;;4.30;;
69207;SDS011;56321;47.662;8.878;2023-02-28T06:16:37;10.80;;;4.72;;
69207;SDS011;56321;47.662;8.878;2023-02-28T06:19:03;9.20;;;4.10;;
69207;SDS011;56321;47.662;8.878;2023-02-28T06:21:29;10.35;;;4.72;;
69207;SDS011;56321;47.662;8.878;2023-02-28T06:23:55;10.23;;;4.60;;
69207;SDS011;56321;47.662;8.878;2023-02-28T06:26:22;10.93;;;5.03;;
69207;SDS011;56321;47.662;8.878;2023-02-28T06:28:48;9.97;;;4.87;;
69207;SDS011;56321;47.662;8.878;2023-02-28T06:31:14;9.75;;;4.53;;
69207;SDS011;56321;47.662;8.878;2023-02-28T06:33:42;10.18;;;4.63;;
69207;SDS011;56321;47.662;8.878;2023-02-28T06:36:09;11.10;;;4.97;;
69207;SDS011;56321;47.662;8.878;2023-02-28T06:38:37;11.25;;;4.90;;
69207;SDS011;56321;47.662;8.878;2023-02-28T06:41:03;11.05;;;5.40;;
69207;SDS011;56321;47.662;8.878;2023-02-28T06:43:29;9.43;;;4.60;;
69207;SDS011;56321;47.662;8.878;2023-02-28T06:45:56;11.03;;;4.83;;
69207;SDS011;56321;47.662;8.878;2023-02-28T06:48:23;9.57;;;4.85;;
69207;SDS011;56321;47.662;8.878;2023-02-28T06:50:50;10.38;;;4.75;;
69207;SDS011;56321;47.662;8.878;2023-02-28T06:53:15;10.70;;;5.20;;
69207;SDS011;56321;47.662;8.878;2023-02-28T06:55:41;10.60;;;4.93;;
69207;SDS011;56321;47.662;8.878;2023-02-28T06:58:06;12.23;;;5.80;;
69207;SDS011;56321;47.662;8.878;2023-02-28T07:00:43;12.77;;;5.93;;
69207;SDS011;56321;47.662;8.878;2023-02-28T07:03:10;12.48;;;5.45;;
69207;SDS011;56321;47.662;8.878;2023-02-28T07:05:37;11.98;;;5.32;;
69207;SDS011;56321;47.662;8.878;2023-02-28T07:08:03;10.40;;;5.25;;
69207;SDS011;56321;47.662;8.878;2023-02-28T07:10:29;12.03;;;5.00;;
69207;SDS011;56321;47.662;8.878;2023-02-28T07:12:55;10.30;;;4.95;;
69207;SDS011;56321;47.662;8.878;2023-02-28T07:15:20;10.67;;;5.10;;
69207;SDS011;56321;47.662;8.878;2023-02-28T07:17:46;10.68;;;4.93;;
69207;SDS011;56321;47.662;8.878;2023-02-28T07:20:11;10.10;;;5.10;;
69207;SDS011;56321;47.662;8.878;2023-02-28T07:22:37;10.57;;;5.13;;
69207;SDS011;56321;47.662;8.878;2023-02-28T07:25:03;9.80;;;4.90;;
69207;SDS011;56321;47.662;8.878;2023-02-28T07:27:29;11.77;;;5.07;;
69207;SDS011;56321;47.662;8.878;2023-02-28T07:29:54;11.97;;;5.27;;
69207;SDS011;56321;47.662;8.878;2023-02-28T07:32:20;13.10;;;5.40;;
69207;SDS011;56321;47.662;8.878;2023-02-28T07:34:45;10.17;;;5.13;;
69207;SDS011;56321;47.662;8.878;2023-02-28T07:37:11;11.80;;;5.30;;
69207;SDS011;56321;47.662;8.878;2023-02-28T07:39:36;10.97;;;5.20;;
69207;SDS011;56321;47.662;8.878;2023-02-28T07:42:05;10.37;;;5.03;;
69207;SDS011;56321;47.662;8.878;2023-02-28T07:44:31;10.95;;;5.10;;
69207;SDS011;56321;47.662;8.878;2023-02-28T07:46:57;10.97;;;5.10;;
69207;SDS011;56321;47.662;8.878;2023-02-28T07:49:22;11.63;;;5.45;;
69207;SDS011;56321;47.662;8.878;2023-02-28T07:51:48;10.67;;;5.33;;
69207;SDS011;56321;47.662;8.878;2023-02-28T07:54:13;10.87;;;5.20;;
69207;SDS011;56321;47.662;8.878;2023-02-28T07:56:38;11.93;;;5.50;;
69207;SDS011;56321;47.662;8.878;2023-02-28T07:59:04;11.50;;;5.00;;
69207;SDS011;56321;47.662;8.878;2023-02-28T08:01:29;10.53;;;5.13;;
69207;SDS011;56321;47.662;8.878;2023-02-28T08:03:54;12.03;;;5.40;;
69207;SDS011;56321;47.662;8.878;2023-02-28T08:06:23;10.48;;;5.18;;
69207;SDS011;56321;47.662;8.878;2023-02-28T08:08:49;12.00;;;5.45;;
69207;SDS011;56321;47.662;8.878;2023-02-28T08:11:15;11.50;;;5.47;;
69207;SDS011;56321;47.662;8.878;2023-02-28T08:13:42;11.40;;;5.22;;
69207;SDS011;56321;47.662;8.878;2023-02-28T08:16:08;10.90;;;5.32;;
69207;SDS011;56321;47.662;8.878;2023-02-28T08:18:34;11.60;;;5.70;;
69207;SDS011;56321;47.662;8.878;2023-02-28T08:21:05;12.17;;;5.63;;
69207;SDS011;56321;47.662;8.878;2023-02-28T08:23:31;12.27;;;5.60;;
69207;SDS011;56321;47.662;8.878;2023-02-28T08:25:58;12.00;;;5.85;;
69207;SDS011;56321;47.662;8.878;2023-02-28T08:28:23;13.10;;;5.70;;
69207;SDS011;56321;47.662;8.878;2023-02-28T08:30:49;11.90;;;5.67;;
69207;SDS011;56321;47.662;8.878;2023-02-28T08:33:14;11.63;;;5.60;;
69207;SDS011;56321;47.662;8.878;2023-02-28T08:35:40;11.23;;;5.68;;
69207;SDS011;56321;47.662;8.878;2023-02-28T08:38:05;11.13;;;5.70;;
69207;SDS011;56321;47.662;8.878;2023-02-28T08:40:30;11.67;;;5.60;;
69207;SDS011;56321;47.662;8.878;2023-02-28T08:42:56;11.97;;;5.97;;
69207;SDS011;56321;47.662;8.878;2023-02-28T08:45:21;11.53;;;5.70;;
69207;SDS011;56321;47.662;8.878;2023-02-28T08:47:46;11.87;;;6.10;;
69207;SDS011;56321;47.662;8.878;2023-02-28T08:50:12;12.43;;;5.93;;
69207;SDS011;56321;47.662;8.878;2023-02-28T08:52:41;10.90;;;5.38;;
69207;SDS011;56321;47.662;8.878;2023-02-28T08:55:08;11.30;;;5.55;;
69207;SDS011;56321;47.662;8.878;2023-02-28T08:57:34;11.02;;;5.25;;
69207;SDS011;56321;47.662;8.878;2023-02-28T08:59:59;11.33;;;5.67;;
69207;SDS011;56321;47.662;8.878;2023-02-28T09:02:25;11.33;;;5.63;;
69207;SDS011;56321;47.662;8.878;2023-02-28T09:04:50;11.27;;;5.60;;
69207;SDS011;56321;47.662;8.878;2023-02-28T09:07:16;11.20;;;5.50;;
69207;SDS011;56321;47.662;8.878;2023-02-28T09:09:41;11.10;;;5.17;;
69207;SDS011;56321;47.662;8.878;2023-02-28T09:12:18;11.52;;;5.80;;
69207;SDS011;56321;47.662;8.878;2023-02-28T09:14:51;12.93;;;5.67;;
69207;SDS011;56321;47.662;8.878;2023-02-28T09:17:16;11.90;;;5.78;;
69207;SDS011;56321;47.662;8.878;2023-02-28T09:19:42;12.10;;;6.20;;
69207;SDS011;56321;47.662;8.878;2023-02-28T09:22:08;11.07;;;5.30;;
69207;SDS011;56321;47.662;8.878;2023-02-28T09:24:35;11.77;;;5.70;;
69207;SDS011;56321;47.662;8.878;2023-02-28T09:27:01;11.50;;;5.67;;
69207;SDS011;56321;47.662;8.878;2023-02-28T09:29:27;12.73;;;6.20;;
69207;SDS011;56321;47.662;8.878;2023-02-28T09:31:52;11.03;;;5.23;;
69207;SDS011;56321;47.662;8.878;2023-02-28T09:34:18;11.93;;;5.93;;
69207;SDS011;56321;47.662;8.878;2023-02-28T09:36:43;12.13;;;5.87;;
69207;SDS011;56321;47.662;8.878;2023-02-28T09:39:08;11.37;;;5.60;;
69207;SDS011;56321;47.662;8.878;2023-02-28T09:41:44;10.77;;;5.43;;
69207;SDS011;56321;47.662;8.878;2023-02-28T09:44:17;12.50;;;5.73;;
69207;SDS011;56321;47.662;8.878;2023-02-28T09:47:18;12.48;;;5.50;;
69207;SDS011;56321;47.662;8.878;2023-02-28T09:49:58;11.75;;;5.45;;
69207;SDS011;56321;47.662;8.878;2023-02-28T09:52:34;11.82;;;5.57;;
69207;SDS011;56321;47.662;8.878;2023-02-28T09:55:08;12.48;;;5.70;;
69207;SDS011;56321;47.662;8.878;2023-02-28T09:57:40;11.50;;;5.80;;
69207;SDS011;56321;47.662;8.878;2023-02-28T10:00:14;11.82;;;6.20;;
69207;SDS011;56321;47.662;8.878;2023-02-28T10:03:17;12.30;;;6.10;;
69207;SDS011;56321;47.662;8.878;2023-02-28T10:08:58;13.35;;;6.32;;
69207;SDS011;56321;47.662;8.878;2023-02-28T10:11:41;12.50;;;6.10;;
69207;SDS011;56321;47.662;8.878;2023-02-28T10:16:46;11.30;;;5.97;;
69207;SDS011;56321;47.662;8.878;2023-02-28T10:21:50;13.05;;;6.93;;
69207;SDS011;56321;47.662;8.878;2023-02-28T10:27:00;11.68;;;5.78;;
69207;SDS011;56321;47.662;8.878;2023-02-28T10:29:34;12.82;;;6.25;;
69207;SDS011;56321;47.662;8.878;2023-02-28T10:32:00;13.63;;;6.73;;
69207;SDS011;56321;47.662;8.878;2023-02-28T10:34:28;14.10;;;6.80;;
69207;SDS011;56321;47.662;8.878;2023-02-28T10:36:53;13.03;;;6.90;;
69207;SDS011;56321;47.662;8.878;2023-02-28T10:42:26;12.43;;;6.60;;
69207;SDS011;56321;47.662;8.878;2023-02-28T10:45:06;12.18;;;6.10;;
69207;SDS011;56321;47.662;8.878;2023-02-28T10:47:35;13.10;;;6.38;;
69207;SDS011;56321;47.662;8.878;2023-02-28T10:55:35;12.43;;;5.82;;
69207;SDS011;56321;47.662;8.878;2023-02-28T10:58:01;12.50;;;5.80;;
69207;SDS011;56321;47.662;8.878;2023-02-28T11:00:31;12.67;;;6.00;;
69207;SDS011;56321;47.662;8.878;2023-02-28T11:02:58;13.00;;;6.38;;
69207;SDS011;56321;47.662;8.878;2023-02-28T11:05:34;12.97;;;6.13;;
69207;SDS011;56321;47.662;8.878;2023-02-28T11:08:11;13.07;;;6.57;;
69207;SDS011;56321;47.662;8.878;2023-02-28T11:10:43;12.63;;;5.87;;
69207;SDS011;56321;47.662;8.878;2023-02-28T11:13:17;12.65;;;6.47;;
69207;SDS011;56321;47.662;8.878;2023-02-28T11:15:49;12.90;;;6.70;;
69207;SDS011;56321;47.662;8.878;2023-02-28T11:21:15;12.45;;;6.35;;
69207;SDS011;56321;47.662;8.878;2023-02-28T11:23:43;13.43;;;6.53;;
69207;SDS011;56321;47.662;8.878;2023-02-28T11:26:09;14.70;;;6.97;;
69207;SDS011;56321;47.662;8.878;2023-02-28T11:28:38;15.27;;;7.03;;
69207;SDS011;56321;47.662;8.878;2023-02-28T11:33:49;14.20;;;6.93;;
69207;SDS011;56321;47.662;8.878;2023-02-28T11:36:23;12.52;;;6.25;;
69207;SDS011;56321;47.662;8.878;2023-02-28T11:38:51;13.88;;;7.05;;
69207;SDS011;56321;47.662;8.878;2023-02-28T11:41:44;14.20;;;7.03;;
69207;SDS011;56321;47.662;8.878;2023-02-28T11:47:26;14.27;;;6.82;;
69207;SDS011;56321;47.662;8.878;2023-02-28T11:50:21;14.73;;;7.32;;
69207;SDS011;56321;47.662;8.878;2023-02-28T11:52:54;14.02;;;7.20;;
69207;SDS011;56321;47.662;8.878;2023-02-28T12:01:14;13.30;;;7.78;;
69207;SDS011;56321;47.662;8.878;2023-02-28T12:06:55;14.05;;;8.10;;
69207;SDS011;56321;47.662;8.878;2023-02-28T12:09:31;13.33;;;6.97;;
69207;SDS011;56321;47.662;8.878;2023-02-28T12:12:05;13.50;;;6.90;;
69207;SDS011;56321;47.662;8.878;2023-02-28T12:17:30;15.93;;;8.05;;
69207;SDS011;56321;47.662;8.878;2023-02-28T12:23:02;14.30;;;7.27;;
69207;SDS011;56321;47.662;8.878;2023-02-28T12:28:39;13.50;;;6.30;;
69207;SDS011;56321;47.662;8.878;2023-02-28T12:31:18;14.38;;;7.32;;
69207;SDS011;56321;47.662;8.878;2023-02-28T12:33:53;14.05;;;7.28;;
69207;SDS011;56321;47.662;8.878;2023-02-28T12:36:24;14.10;;;7.10;;
69207;SDS011;56321;47.662;8.878;2023-02-28T12:42:01;14.43;;;6.80;;
69207;SDS011;56321;47.662;8.878;2023-02-28T12:44:54;13.25;;;6.50;;
69207;SDS011;56321;47.662;8.878;2023-02-28T12:47:21;15.52;;;7.30;;
69207;SDS011;56321;47.662;8.878;2023-02-28T12:52:12;14.83;;;7.43;;
69207;SDS011;56321;47.662;8.878;2023-02-28T12:54:46;14.85;;;7.57;;
69207;SDS011;56321;47.662;8.878;2023-02-28T12:57:38;14.33;;;7.30;;
69207;SDS011;56321;47.662;8.878;2023-02-28T13:00:14;14.85;;;7.45;;
69207;SDS011;56321;47.662;8.878;2023-02-28T13:08:32;19.60;;;8.43;;
69207;SDS011;56321;47.662;8.878;2023-02-28T13:11:24;16.27;;;8.03;;
69207;SDS011;56321;47.662;8.878;2023-02-28T13:14:03;15.23;;;7.85;;
69207;SDS011;56321;47.662;8.878;2023-02-28T13:16:53;14.68;;;7.22;;
69207;SDS011;56321;47.662;8.878;2023-02-28T13:19:20;15.20;;;7.90;;
69207;SDS011;56321;47.662;8.878;2023-02-28T13:21:49;16.65;;;7.70;;
69207;SDS011;56321;47.662;8.878;2023-02-28T13:29:41;16.07;;;8.07;;
69207;SDS011;56321;47.662;8.878;2023-02-28T13:47:38;15.00;;;7.97;;
69207;SDS011;56321;47.662;8.878;2023-02-28T13:55:43;17.45;;;9.07;;
69207;SDS011;56321;47.662;8.878;2023-02-28T14:03:47;15.70;;;8.10;;
69207;SDS011;56321;47.662;8.878;2023-02-28T14:06:37;16.52;;;8.52;;
69207;SDS011;56321;47.662;8.878;2023-02-28T14:11:53;15.30;;;7.75;;
69207;SDS011;56321;47.662;8.878;2023-02-28T14:17:00;16.30;;;8.63;;
69207;SDS011;56321;47.662;8.878;2023-02-28T14:19:29;16.13;;;8.18;;
69207;SDS011;56321;47.662;8.878;2023-02-28T14:22:12;15.45;;;8.52;;
69207;SDS011;56321;47.662;8.878;2023-02-28T14:37:44;16.08;;;7.80;;
69207;SDS011;56321;47.662;8.878;2023-02-28T14:40:12;15.50;;;7.80;;
69207;SDS011;56321;47.662;8.878;2023-02-28T14:42:46;17.00;;;8.70;;
69207;SDS011;56321;47.662;8.878;2023-02-28T14:45:19;17.00;;;8.32;;
69207;SDS011;56321;47.662;8.878;2023-02-28T14:47:46;17.90;;;9.27;;
69207;SDS011;56321;47.662;8.878;2023-02-28T14:50:20;16.60;;;8.52;;
69207;SDS011;56321;47.662;8.878;2023-02-28T14:52:47;17.50;;;9.00;;
69207;SDS011;56321;47.662;8.878;2023-02-28T14:55:18;16.17;;;8.93;;
69207;SDS011;56321;47.662;8.878;2023-02-28T15:02:49;15.60;;;8.35;;
69207;SDS011;56321;47.662;8.878;2023-02-28T15:07:43;17.00;;;8.20;;
69207;SDS011;56321;47.662;8.878;2023-02-28T15:10:15;17.30;;;8.98;;
69207;SDS011;56321;47.662;8.878;2023-02-28T15:12:43;17.20;;;9.03;;
69207;SDS011;56321;47.662;8.878;2023-02-28T15:15:16;15.80;;;8.57;;
69207;SDS011;56321;47.662;8.878;2023-02-28T15:17:45;16.83;;;8.23;;
69207;SDS011;56321;47.662;8.878;2023-02-28T15:20:15;17.70;;;8.40;;
69207;SDS011;56321;47.662;8.878;2023-02-28T15:22:41;17.15;;;9.05;;
69207;SDS011;56321;47.662;8.878;2023-02-28T15:25:09;19.27;;;8.57;;
69207;SDS011;56321;47.662;8.878;2023-02-28T15:27:39;17.67;;;9.45;;
69207;SDS011;56321;47.662;8.878;2023-02-28T15:30:20;17.85;;;8.63;;
69207;SDS011;56321;47.662;8.878;2023-02-28T15:35:37;16.85;;;8.77;;
69207;SDS011;56321;47.662;8.878;2023-02-28T15:40:56;16.88;;;8.80;;
69207;SDS011;56321;47.662;8.878;2023-02-28T15:45:59;17.45;;;9.27;;
69207;SDS011;56321;47.662;8.878;2023-02-28T15:48:28;17.35;;;8.63;;
69207;SDS011;56321;47.662;8.878;2023-02-28T15:53:41;17.83;;;8.82;;
69207;SDS011;56321;47.662;8.878;2023-02-28T15:56:20;17.13;;;9.13;;
69207;SDS011;56321;47.662;8.878;2023-02-28T15:58:49;21.30;;;11.85;;
69207;SDS011;56321;47.662;8.878;2023-02-28T16:01:23;18.30;;;9.13;;
69207;SDS011;56321;47.662;8.878;2023-02-28T16:03:51;17.83;;;9.00;;
69207;SDS011;56321;47.662;8.878;2023-02-28T16:09:25;18.30;;;9.55;;
69207;SDS011;56321;47.662;8.878;2023-02-28T16:11:52;19.57;;;10.00;;
69207;SDS011;56321;47.662;8.878;2023-02-28T16:14:21;18.55;;;10.02;;
69207;SDS011;56321;47.662;8.878;2023-02-28T16:16:49;17.58;;;9.15;;
69207;SDS011;56321;47.662;8.878;2023-02-28T16:19:16;17.85;;;9.75;;
69207;SDS011;56321;47.662;8.878;2023-02-28T16:21:42;17.73;;;10.63;;
69207;SDS011;56321;47.662;8.878;2023-02-28T16:24:07;16.65;;;9.02;;
69207;SDS011;56321;47.662;8.878;2023-02-28T16:26:33;19.43;;;10.30;;
69207;SDS011;56321;47.662;8.878;2023-02-28T16:28:59;16.97;;;8.83;;
69207;SDS011;56321;47.662;8.878;2023-02-28T16:31:26;18.02;;;9.80;;
69207;SDS011;56321;47.662;8.878;2023-02-28T16:33:52;19.23;;;10.15;;
69207;SDS011;56321;47.662;8.878;2023-02-28T16:36:20;17.00;;;9.23;;
69207;SDS011;56321;47.662;8.878;2023-02-28T16:38:48;18.83;;;9.48;;
69207;SDS011;56321;47.662;8.878;2023-02-28T16:41:20;16.93;;;9.50;;
69207;SDS011;56321;47.662;8.878;2023-02-28T16:43:48;24.20;;;9.70;;
69207;SDS011;56321;47.662;8.878;2023-02-28T16:46:16;17.53;;;9.63;;
69207;SDS011;56321;47.662;8.878;2023-02-28T16:48:42;19.65;;;9.57;;
69207;SDS011;56321;47.662;8.878;2023-02-28T16:51:11;17.30;;;8.90;;
69207;SDS011;56321;47.662;8.878;2023-02-28T16:53:37;18.75;;;9.73;;
69207;SDS011;56321;47.662;8.878;2023-02-28T16:56:03;19.80;;;9.87;;
69207;SDS011;56321;47.662;8.878;2023-02-28T16:58:29;19.00;;;10.52;;
69207;SDS011;56321;47.662;8.878;2023-02-28T17:00:54;17.30;;;9.60;;
69207;SDS011;56321;47.662;8.878;2023-02-28T17:03:24;21.43;;;11.90;;
69207;SDS011;56321;47.662;8.878;2023-02-28T17:05:52;18.58;;;10.88;;
69207;SDS011;56321;47.662;8.878;2023-02-28T17:08:18;17.60;;;9.57;;
69207;SDS011;56321;47.662;8.878;2023-02-28T17:10:43;29.10;;;13.85;;
69207;SDS011;56321;47.662;8.878;2023-02-28T17:13:09;25.80;;;13.07;;
69207;SDS011;56321;47.662;8.878;2023-02-28T17:15:34;23.20;;;11.80;;
69207;SDS011;56321;47.662;8.878;2023-02-28T17:18:00;24.70;;;12.38;;
69207;SDS011;56321;47.662;8.878;2023-02-28T17:20:26;22.65;;;12.45;;
69207;SDS011;56321;47.662;8.878;2023-02-28T17:22:52;22.63;;;11.53;;
69207;SDS011;56321;47.662;8.878;2023-02-28T17:25:18;22.45;;;12.25;;
69207;SDS011;56321;47.662;8.878;2023-02-28T17:27:44;25.80;;;13.23;;
69207;SDS011;56321;47.662;8.878;2023-02-28T17:30:13;30.98;;;15.98;;
69207;SDS011;56321;47.662;8.878;2023-02-28T17:32:41;28.35;;;15.05;;
69207;SDS011;56321;47.662;8.878;2023-02-28T17:35:06;31.57;;;15.97;;
69207;SDS011;56321;47.662;8.878;2023-02-28T17:37:32;28.85;;;15.15;;